Terminal Aerodrome Forecast
Issued by NWS

Home | Current Version | Previous Version | Text Only | Print | Product List | Glossary On
Versions: 1 2 3 4 5 6 7 8 9 10 11 12 13
000
FTUS46 KSGX 010520
TAFPSP
TAF
KPSP 010520Z 0106/0206 32008KT P6SM FEW150
     FM010800 VRB05KT P6SM SCT120 BKN200
     FM011500 10010KT P6SM VCTS BKN100CB
     FM012300 32015G25KT P6SM SCT150=

USA.gov is the U.S. government's official web portal to all federal, state and local government web resources and services.